Mercur 201 — YP2350 — position and weather

sailwx.info

Track history (hours):
 
Tides and Currents Weather Stations Pressure Air Temp Water Temp Dewpoint Dewpoint Depression Visibility Wind Speed Wind Dir Waves Ship Positions

Mercur 201

Last reported at 2018-May-23 05:30 UTC. Time now 2018-May-23 05:29 UTC.
Position N 44°29' E 022°11'.

Length 252 m; draft 2.4 m.

Type: Ship. MMSI: 264162350.

Date/timePositionNaut miles runAvg speedWind from/ knotsBaromVisibWave heightAir tempDewpointWater temp
2018-May-23 05:30N 44°29' E 022°11'4 4.7
2018-May-23 04:36N 44°33' E 022°13'1 5.1
2018-May-23 04:28N 44°34' E 022°14'7 4.7
2018-May-23 03:02N 44°39' E 022°18'0 4.6
2018-May-23 02:57N 44°40' E 022°19'2 5.1
2018-May-23 02:30N 44°40' E 022°22'2 3.2
2018-May-23 02:00N 44°41' E 022°24'0 0.0
2018-May-23 01:29N 44°41' E 022°24'0 0.0
2018-May-23 00:39N 44°41' E 022°24'0 0.0
2018-May-23 00:22N 44°41' E 022°24'0 0.0
2018-May-23 00:00N 44°41' E 022°24'0 0.0
2018-May-22 23:30N 44°41' E 022°24'0 0.0
2018-May-22 22:49N 44°41' E 022°24'0 0.0
2018-May-22 22:22N 44°41' E 022°24'0 0.0
2018-May-22 21:55N 44°41' E 022°24'0 0.0
2018-May-22 21:23N 44°41' E 022°24'0 0.0
2018-May-22 20:57N 44°41' E 022°24'0 0.0
2018-May-22 20:24N 44°41' E 022°24'0 0.0
2018-May-22 19:51N 44°41' E 022°24'0 0.0
2018-May-22 19:29N 44°41' E 022°24'0 0.0
2018-May-22 18:58N 44°41' E 022°24'0 0.0
2018-May-22 18:29N 44°41' E 022°24'1 2.9
2018-May-22 18:01N 44°42' E 022°25'1 1.9
2018-May-22 17:30N 44°43' E 022°25'0 0.2
2018-May-22 17:01N 44°43' E 022°25'0 0.2
2018-May-22 16:30N 44°43' E 022°25'0 0.1
2018-May-22 12:48N 44°44' E 022°25'1 2.3
2018-May-22 12:30N 44°43' E 022°25'2 4.2
2018-May-22 12:00N 44°43' E 022°28'2 4.9
2018-May-22 11:30N 44°41' E 022°30'1 2.6
2018-May-22 11:00N 44°40' E 022°32'0 0.1
2018-May-22 10:30N 44°40' E 022°32'0 0.3
2018-May-22 10:00N 44°40' E 022°32'0 0.1
2018-May-22 09:30N 44°40' E 022°32'0 0.6
2018-May-22 09:00N 44°40' E 022°33'0 0.0
2018-May-22 08:30N 44°40' E 022°33'0 0.0
2018-May-22 08:00N 44°40' E 022°33'0 0.1
2018-May-22 07:30N 44°40' E 022°33'1 2.1
2018-May-22 07:01N 44°39' E 022°33'1 3.0
2018-May-22 06:31N 44°38' E 022°35'1 2.9
2018-May-22 06:00N 44°37' E 022°36'2 3.2
2018-May-22 05:30N 44°37' E 022°39'2 3.8
2018-May-22 05:00N 44°37' E 022°41'2 4.0
2018-May-22 04:30N 44°35' E 022°43'2 4.5
2018-May-22 04:01N 44°34' E 022°45'2 3.6
2018-May-22 03:30N 44°32' E 022°45'2 4.2
2018-May-22 03:00N 44°31' E 022°42'2 4.2
2018-May-22 02:30N 44°32' E 022°40'2 4.6
2018-May-22 01:59N 44°33' E 022°37'2 4.3
2018-May-22 01:30N 44°32' E 022°34'2 4.9
2018-May-22 01:00N 44°30' E 022°34'2 4.3
2018-May-22 00:30N 44°28' E 022°31'2 4.4
2018-May-22 00:00N 44°29' E 022°28'2 3.3
2018-May-21 23:30N 44°27' E 022°28'2 4.2
2018-May-21 23:00N 44°26' E 022°30'2 3.9
2018-May-21 22:31N 44°24' E 022°30'2 4.3
2018-May-21 22:00N 44°22' E 022°31'2 4.2
2018-May-21 21:30N 44°20' E 022°32'2 4.0
2018-May-21 21:00N 44°18' E 022°34'0 0.2
2018-May-21 20:30N 44°18' E 022°34'0 0.6
2018-May-21 20:00N 44°18' E 022°34'1 1.3
2018-May-21 19:30N 44°18' E 022°35'1 2.7
2018-May-21 19:00N 44°18' E 022°37'2 3.2
2018-May-21 18:30N 44°17' E 022°39'1 3.0
2018-May-21 18:00N 44°16' E 022°41'1 3.0
2018-May-21 17:30N 44°15' E 022°41'2 3.2
2018-May-21 17:00N 44°13' E 022°40'2 3.3
2018-May-21 16:30N 44°12' E 022°42'1 2.9
2018-May-21 16:00N 44°12' E 022°44'1 2.6
2018-May-21 15:30N 44°11' E 022°46'2 3.2
2018-May-21 15:00N 44°10' E 022°47'2 3.5
2018-May-21 14:31N 44°09' E 022°49'2 3.3
2018-May-21 14:00N 44°08' E 022°51'2 3.2
2018-May-21 13:30N 44°08' E 022°53'2 3.4
2018-May-21 13:00N 44°06' E 022°55'1 2.9
2018-May-21 12:30N 44°06' E 022°56'2 3.4
2018-May-21 12:00N 44°06' E 022°59'2 3.5
2018-May-21 11:30N 44°05' E 023°01'2 3.3
2018-May-21 11:00N 44°04' E 023°03'1 2.8
2018-May-21 10:31N 44°03' E 023°02'2 3.1
2018-May-21 10:00N 44°02' E 023°01'1 2.7
2018-May-21 09:30N 44°01' E 022°60'2 3.4
2018-May-21 09:00N 44°00' E 022°58'2 3.2
2018-May-21 08:30N 43°60' E 022°55'1 2.9
2018-May-21 08:00N 43°59' E 022°54'2 3.1
2018-May-21 07:30N 43°58' E 022°53'2 3.7
2018-May-21 07:00N 43°56' E 022°52'2 3.5
2018-May-21 06:29N 43°55' E 022°51'2 3.4
2018-May-21 06:00N 43°53' E 022°50'2 3.4
2018-May-21 05:23N 43°51' E 022°51'1 3.3
2018-May-21 04:59N 43°50' E 022°52'9 3.3
2018-May-21 02:16N 43°48' E 023°04'2 3.3
2018-May-21 01:46N 43°48' E 023°07'1 3.2
2018-May-21 01:26N 43°48' E 023°08'1 3.1
2018-May-21 01:00N 43°49' E 023°10'2 3.5
2018-May-21 00:18N 43°50' E 023°13'1 3.4
2018-May-20 23:57N 43°50' E 023°15'2 3.3
2018-May-20 23:29N 43°51' E 023°16'2 3.5
2018-May-20 22:58N 43°51' E 023°19'3 3.6
2018-May-20 22:14N 43°51' E 023°23'  
Track history (hours):
 
Tides and Currents Weather Stations Pressure Air Temp Water Temp Dewpoint Dewpoint Depression Visibility Wind Speed Wind Dir Waves Ship Positions

Mercur 201

Last reported at 2018-May-23 05:30 UTC. Time now 2018-May-23 05:29 UTC.
Position N 44°29' E 022°11'.

Length 252 m; draft 2.4 m.

Type: Ship. MMSI: 264162350.

Date/timePositionNaut miles runAvg speedWind from/ knotsBaromVisibWave heightAir tempDewpointWater temp
2018-May-23 05:30N 44°29' E 022°11'4 4.7
2018-May-23 04:36N 44°33' E 022°13'1 5.1
2018-May-23 04:28N 44°34' E 022°14'7 4.7
2018-May-23 03:02N 44°39' E 022°18'0 4.6
2018-May-23 02:57N 44°40' E 022°19'2 5.1
2018-May-23 02:30N 44°40' E 022°22'2 3.2
2018-May-23 02:00N 44°41' E 022°24'0 0.0
2018-May-23 01:29N 44°41' E 022°24'0 0.0
2018-May-23 00:39N 44°41' E 022°24'0 0.0
2018-May-23 00:22N 44°41' E 022°24'0 0.0
2018-May-23 00:00N 44°41' E 022°24'0 0.0
2018-May-22 23:30N 44°41' E 022°24'0 0.0
2018-May-22 22:49N 44°41' E 022°24'0 0.0
2018-May-22 22:22N 44°41' E 022°24'0 0.0
2018-May-22 21:55N 44°41' E 022°24'0 0.0
2018-May-22 21:23N 44°41' E 022°24'0 0.0
2018-May-22 20:57N 44°41' E 022°24'0 0.0
2018-May-22 20:24N 44°41' E 022°24'0 0.0
2018-May-22 19:51N 44°41' E 022°24'0 0.0
2018-May-22 19:29N 44°41' E 022°24'0 0.0
2018-May-22 18:58N 44°41' E 022°24'0 0.0
2018-May-22 18:29N 44°41' E 022°24'1 2.9
2018-May-22 18:01N 44°42' E 022°25'1 1.9
2018-May-22 17:30N 44°43' E 022°25'0 0.2
2018-May-22 17:01N 44°43' E 022°25'0 0.2
2018-May-22 16:30N 44°43' E 022°25'0 0.1
2018-May-22 12:48N 44°44' E 022°25'1 2.3
2018-May-22 12:30N 44°43' E 022°25'2 4.2
2018-May-22 12:00N 44°43' E 022°28'2 4.9
2018-May-22 11:30N 44°41' E 022°30'1 2.6
2018-May-22 11:00N 44°40' E 022°32'0 0.1
2018-May-22 10:30N 44°40' E 022°32'0 0.3
2018-May-22 10:00N 44°40' E 022°32'0 0.1
2018-May-22 09:30N 44°40' E 022°32'0 0.6
2018-May-22 09:00N 44°40' E 022°33'0 0.0
2018-May-22 08:30N 44°40' E 022°33'0 0.0
2018-May-22 08:00N 44°40' E 022°33'0 0.1
2018-May-22 07:30N 44°40' E 022°33'1 2.1
2018-May-22 07:01N 44°39' E 022°33'1 3.0
2018-May-22 06:31N 44°38' E 022°35'1 2.9
2018-May-22 06:00N 44°37' E 022°36'2 3.2
2018-May-22 05:30N 44°37' E 022°39'2 3.8
2018-May-22 05:00N 44°37' E 022°41'2 4.0
2018-May-22 04:30N 44°35' E 022°43'2 4.5
2018-May-22 04:01N 44°34' E 022°45'2 3.6
2018-May-22 03:30N 44°32' E 022°45'2 4.2
2018-May-22 03:00N 44°31' E 022°42'2 4.2
2018-May-22 02:30N 44°32' E 022°40'2 4.6
2018-May-22 01:59N 44°33' E 022°37'2 4.3
2018-May-22 01:30N 44°32' E 022°34'2 4.9
2018-May-22 01:00N 44°30' E 022°34'2 4.3
2018-May-22 00:30N 44°28' E 022°31'2 4.4
2018-May-22 00:00N 44°29' E 022°28'2 3.3
2018-May-21 23:30N 44°27' E 022°28'2 4.2
2018-May-21 23:00N 44°26' E 022°30'2 3.9
2018-May-21 22:31N 44°24' E 022°30'2 4.3
2018-May-21 22:00N 44°22' E 022°31'2 4.2
2018-May-21 21:30N 44°20' E 022°32'2 4.0
2018-May-21 21:00N 44°18' E 022°34'0 0.2
2018-May-21 20:30N 44°18' E 022°34'0 0.6
2018-May-21 20:00N 44°18' E 022°34'1 1.3
2018-May-21 19:30N 44°18' E 022°35'1 2.7
2018-May-21 19:00N 44°18' E 022°37'2 3.2
2018-May-21 18:30N 44°17' E 022°39'1 3.0
2018-May-21 18:00N 44°16' E 022°41'1 3.0
2018-May-21 17:30N 44°15' E 022°41'2 3.2
2018-May-21 17:00N 44°13' E 022°40'2 3.3
2018-May-21 16:30N 44°12' E 022°42'1 2.9
2018-May-21 16:00N 44°12' E 022°44'1 2.6
2018-May-21 15:30N 44°11' E 022°46'2 3.2
2018-May-21 15:00N 44°10' E 022°47'2 3.5
2018-May-21 14:31N 44°09' E 022°49'2 3.3
2018-May-21 14:00N 44°08' E 022°51'2 3.2
2018-May-21 13:30N 44°08' E 022°53'2 3.4
2018-May-21 13:00N 44°06' E 022°55'1 2.9
2018-May-21 12:30N 44°06' E 022°56'2 3.4
2018-May-21 12:00N 44°06' E 022°59'2 3.5
2018-May-21 11:30N 44°05' E 023°01'2 3.3
2018-May-21 11:00N 44°04' E 023°03'1 2.8
2018-May-21 10:31N 44°03' E 023°02'2 3.1
2018-May-21 10:00N 44°02' E 023°01'1 2.7
2018-May-21 09:30N 44°01' E 022°60'2 3.4
2018-May-21 09:00N 44°00' E 022°58'2 3.2
2018-May-21 08:30N 43°60' E 022°55'1 2.9
2018-May-21 08:00N 43°59' E 022°54'2 3.1
2018-May-21 07:30N 43°58' E 022°53'2 3.7
2018-May-21 07:00N 43°56' E 022°52'2 3.5
2018-May-21 06:29N 43°55' E 022°51'2 3.4
2018-May-21 06:00N 43°53' E 022°50'2 3.4
2018-May-21 05:23N 43°51' E 022°51'1 3.3
2018-May-21 04:59N 43°50' E 022°52'9 3.3
2018-May-21 02:16N 43°48' E 023°04'2 3.3
2018-May-21 01:46N 43°48' E 023°07'1 3.2
2018-May-21 01:26N 43°48' E 023°08'1 3.1
2018-May-21 01:00N 43°49' E 023°10'2 3.5
2018-May-21 00:18N 43°50' E 023°13'1 3.4
2018-May-20 23:57N 43°50' E 023°15'2 3.3
2018-May-20 23:29N 43°51' E 023°16'2 3.5
2018-May-20 22:58N 43°51' E 023°19'3 3.6
2018-May-20 22:14N 43°51' E 023°23'  

Dump ship's entire track history